Time;durP1;ratioP1;P1;durP2;ratioP2;P2;SDS_P1;SDS_P2;PMS_P1;PMS_P2;Temp;Humidity;BMP_temperature;BMP_pressure;BME280_temperature;BME280_humidity;BME280_pressure;Samples;Min_cycle;Max_cycle;Signal;HPM_P1;HPM_P2
2022/05/10 00:02:12;;;;;;;4.53;2.35;;;20.10;51.30;;;;;;5073318;28;20028;-76
2022/05/10 00:04:38;;;;;;;4.50;2.88;;;20.10;51.70;;;;;;5103851;28;20452;-79
2022/05/10 00:07:04;;;;;;;5.07;2.75;;;20.10;51.30;;;;;;5099724;28;20028;-78
2022/05/10 00:09:29;;;;;;;4.40;2.70;;;20.10;51.20;;;;;;5093746;28;20035;-79
2022/05/10 00:11:57;;;;;;;6.25;3.10;;;20.00;51.30;;;;;;5093640;28;20027;-78
2022/05/10 00:14:24;;;;;;;4.35;2.80;;;20.00;51.70;;;;;;5090452;28;20033;-79
2022/05/10 00:16:52;;;;;;;3.88;3.08;;;20.00;51.80;;;;;;5073347;28;20016;-79
2022/05/10 00:19:20;;;;;;;4.38;3.05;;;20.00;51.50;;;;;;5080428;28;20107;-78
2022/05/10 00:21:47;;;;;;;4.93;2.92;;;19.90;51.90;;;;;;5092294;28;20028;-79
2022/05/10 00:24:13;;;;;;;5.22;2.78;;;19.90;52.20;;;;;;5076038;28;20430;-79
2022/05/10 00:26:39;;;;;;;5.38;2.63;;;19.90;52.70;;;;;;5071901;28;20032;-79
2022/05/10 00:29:04;;;;;;;5.53;2.63;;;19.90;52.40;;;;;;5073372;28;20422;-79
2022/05/10 00:31:31;;;;;;;5.72;3.42;;;19.80;52.10;;;;;;5093328;28;20058;-78
2022/05/10 00:33:59;;;;;;;4.45;2.80;;;19.80;52.40;;;;;;5093592;28;20027;-79
2022/05/10 00:36:25;;;;;;;4.18;2.55;;;19.80;52.60;;;;;;5090790;28;20117;-78
2022/05/10 00:38:52;;;;;;;5.65;2.92;;;19.70;52.50;;;;;;5073224;28;20711;-79
2022/05/10 00:41:37;;;;;;;4.57;3.22;;;19.70;53.00;;;;;;5072852;28;20029;-79
2022/05/10 00:44:17;;;;;;;5.03;3.13;;;19.60;54.10;;;;;;5071623;28;20078;-79
2022/05/10 00:46:46;;;;;;;5.35;2.85;;;19.50;54.50;;;;;;5073046;28;20040;-79
2022/05/10 00:49:27;;;;;;;4.93;3.28;;;19.50;54.00;;;;;;5082790;28;20029;-77
2022/05/10 00:52:42;;;;;;;6.45;3.22;;;19.50;54.10;;;;;;5093164;28;20499;-77
2022/05/10 00:55:11;;;;;;;5.20;3.60;;;19.50;53.60;;;;;;5065499;28;20090;-77
2022/05/10 00:57:48;;;;;;;5.28;2.80;;;19.60;53.90;;;;;;5084968;28;20017;-78
2022/05/10 01:00:19;;;;;;;5.28;3.20;;;19.60;54.10;;;;;;5075682;28;20033;-78
2022/05/10 01:02:55;;;;;;;4.30;2.92;;;19.50;54.20;;;;;;5076949;28;20571;-77
2022/05/10 01:05:30;;;;;;;5.38;3.50;;;19.60;53.60;;;;;;5087560;28;20037;-78
2022/05/10 01:08:14;;;;;;;5.70;3.50;;;19.70;53.10;;;;;;5077036;28;20033;-78
2022/05/10 01:10:39;;;;;;;4.15;3.08;;;19.60;53.30;;;;;;5076871;28;20040;-78
2022/05/10 01:13:30;;;;;;;5.68;3.40;;;19.50;53.70;;;;;;5076621;28;20104;-77
2022/05/10 01:16:06;;;;;;;6.82;3.40;;;19.50;53.80;;;;;;5075890;28;20945;-78
2022/05/10 01:18:33;;;;;;;4.13;3.17;;;19.40;54.60;;;;;;5075085;28;20119;-78
2022/05/10 01:21:19;;;;;;;4.55;3.20;;;19.50;53.90;;;;;;5075066;28;20067;-77
2022/05/10 01:24:00;;;;;;;8.75;4.18;;;19.50;54.10;;;;;;5076335;28;20032;-77
2022/05/10 01:26:47;;;;;;;6.43;3.40;;;19.40;54.40;;;;;;5092604;28;20448;-78
2022/05/10 01:29:27;;;;;;;5.50;3.15;;;19.40;54.30;;;;;;5076260;28;20107;-78
2022/05/10 01:34:43;;;;;;;6.00;3.43;;;19.40;54.70;;;;;;5096582;28;20058;-78
2022/05/10 01:37:15;;;;;;;4.72;3.35;;;19.40;54.70;;;;;;5096396;28;20254;-77
2022/05/10 01:39:50;;;;;;;8.65;3.97;;;19.30;54.70;;;;;;5082941;28;20463;-77
2022/05/10 01:42:30;;;;;;;7.25;4.35;;;19.30;55.00;;;;;;5074990;28;20111;-78
2022/05/10 01:45:22;;;;;;;4.93;3.53;;;19.20;55.50;;;;;;5075713;28;20030;-78
2022/05/10 01:47:57;;;;;;;5.40;3.20;;;19.20;55.10;;;;;;5074666;28;20025;-78
2022/05/10 01:50:45;;;;;;;6.88;3.60;;;19.20;55.00;;;;;;5079918;28;20078;-78
2022/05/10 01:53:16;;;;;;;4.78;3.53;;;19.10;55.80;;;;;;5095941;28;20027;-78
2022/05/10 01:55:47;;;;;;;6.10;3.95;;;19.10;55.60;;;;;;5094850;28;20107;-77
2022/05/10 01:58:25;;;;;;;31.67;19.30;;;19.10;55.40;;;;;;5094795;28;20027;-78
2022/05/10 02:00:57;;;;;;;6.15;3.78;;;19.20;55.60;;;;;;5096407;28;20029;-78
2022/05/10 02:03:25;;;;;;;8.02;3.85;;;19.20;55.00;;;;;;5099291;28;20031;-78
2022/05/10 02:06:05;;;;;;;6.05;3.78;;;19.20;55.10;;;;;;5077317;28;20818;-77
2022/05/10 02:08:51;;;;;;;7.07;3.40;;;19.10;55.60;;;;;;5080167;28;20635;-77
2022/05/10 02:11:17;;;;;;;7.00;3.20;;;19.10;55.90;;;;;;5095806;28;20115;-77
2022/05/10 02:14:00;;;;;;;5.05;3.00;;;19.00;56.20;;;;;;5094106;28;20036;-78
2022/05/10 02:16:48;;;;;;;4.88;3.10;;;19.00;56.10;;;;;;5088778;28;20024;-77
2022/05/10 02:19:33;;;;;;;4.95;3.70;;;18.80;56.30;;;;;;5071848;28;20075;-77
2022/05/10 02:22:04;;;;;;;5.15;3.47;;;18.80;56.20;;;;;;5078860;28;20046;-77
2022/05/10 02:24:42;;;;;;;5.85;3.55;;;18.80;56.30;;;;;;5095599;28;20020;-77
2022/05/10 02:27:18;;;;;;;5.63;3.88;;;18.70;56.90;;;;;;5074311;28;20028;-78
2022/05/10 02:29:54;;;;;;;5.20;3.53;;;18.60;57.70;;;;;;5074934;28;20099;-77
2022/05/10 02:35:13;;;;;;;5.13;3.55;;;18.40;58.50;;;;;;5095779;28;20133;-77
2022/05/10 02:37:39;;;;;;;7.15;4.38;;;18.40;58.00;;;;;;5088669;28;20029;-77
2022/05/10 02:40:06;;;;;;;4.97;3.72;;;18.40;57.70;;;;;;5073789;28;20021;-77
2022/05/10 02:42:33;;;;;;;7.72;4.35;;;18.50;57.80;;;;;;5073650;28;20031;-77
2022/05/10 02:44:59;;;;;;;8.60;3.97;;;18.50;57.20;;;;;;5074644;28;20113;-77
2022/05/10 02:47:33;;;;;;;20.73;10.82;;;18.50;57.30;;;;;;5074822;28;20446;-77
2022/05/10 02:49:59;;;;;;;6.20;3.78;;;18.50;57.40;;;;;;5073461;28;20491;-77
2022/05/10 02:52:25;;;;;;;5.78;4.30;;;18.40;57.90;;;;;;5084419;28;20036;-76
2022/05/10 02:54:55;;;;;;;9.18;4.60;;;18.30;57.90;;;;;;5074743;28;20021;-78
2022/05/10 02:57:24;;;;;;;5.80;4.38;;;18.30;58.10;;;;;;5074778;28;20089;-78
2022/05/10 02:59:51;;;;;;;5.43;3.15;;;18.30;58.80;;;;;;5074560;28;20454;-77
2022/05/10 03:02:27;;;;;;;5.53;4.00;;;18.20;59.40;;;;;;5073492;28;20525;-78
2022/05/10 03:04:57;;;;;;;5.40;3.58;;;18.10;59.10;;;;;;5107695;28;20099;-78
2022/05/10 03:07:24;;;;;;;7.13;4.53;;;18.10;59.50;;;;;;5110219;28;20486;-77
2022/05/10 03:09:50;;;;;;;5.75;4.30;;;18.00;59.90;;;;;;5094712;28;20560;-77
2022/05/10 03:12:17;;;;;;;192.18;130.05;;;18.10;59.60;;;;;;5079001;28;20028;-78
2022/05/10 03:14:42;;;;;;;7.40;4.57;;;18.10;59.70;;;;;;5074245;28;20029;-77
2022/05/10 03:17:10;;;;;;;8.10;4.05;;;18.10;59.30;;;;;;5074311;28;20066;-78
2022/05/10 03:19:37;;;;;;;8.23;4.38;;;18.10;59.40;;;;;;5073892;28;20478;-78
2022/05/10 03:22:03;;;;;;;11.00;5.22;;;18.00;60.10;;;;;;5074005;28;20017;-78
2022/05/10 03:24:30;;;;;;;5.15;4.35;;;17.90;60.00;;;;;;5074108;28;20032;-77
2022/05/10 03:26:57;;;;;;;7.07;4.45;;;17.90;60.10;;;;;;5072823;28;20609;-77
2022/05/10 03:29:25;;;;;;;7.65;3.92;;;17.90;60.50;;;;;;5074017;28;20024;-78
2022/05/10 03:31:52;;;;;;;5.75;3.70;;;17.90;60.80;;;;;;5073849;28;20082;-78
2022/05/10 03:37:02;;;;;;;5.97;4.32;;;17.90;60.10;;;;;;5094474;28;20077;-77
2022/05/10 03:39:28;;;;;;;7.63;4.72;;;17.90;60.30;;;;;;5078826;28;20494;-77
2022/05/10 03:41:53;;;;;;;9.38;4.80;;;17.80;60.60;;;;;;5073836;28;20100;-77
2022/05/10 03:44:19;;;;;;;8.00;4.80;;;17.80;60.90;;;;;;5073689;28;20718;-78
2022/05/10 03:46:45;;;;;;;7.20;5.03;;;17.90;60.70;;;;;;5092602;28;20020;-77
2022/05/10 03:49:11;;;;;;;6.40;4.30;;;17.90;60.90;;;;;;5088689;28;20031;-77
2022/05/10 03:51:37;;;;;;;8.77;4.68;;;17.90;60.60;;;;;;5079504;28;20032;-78
2022/05/10 03:54:03;;;;;;;6.53;4.82;;;17.80;60.90;;;;;;5093998;28;20088;-77
2022/05/10 03:56:29;;;;;;;6.72;4.68;;;17.90;60.60;;;;;;5093571;28;20015;-77
2022/05/10 03:58:54;;;;;;;9.70;5.95;;;17.80;61.10;;;;;;5081327;28;20051;-77
2022/05/10 04:01:21;;;;;;;9.18;5.55;;;17.70;61.20;;;;;;5073622;28;20602;-78
2022/05/10 04:03:47;;;;;;;8.48;5.13;;;17.70;61.10;;;;;;5073961;28;20494;-78
2022/05/10 04:06:13;;;;;;;9.45;5.10;;;17.60;61.20;;;;;;5073484;28;20028;-77
2022/05/10 04:08:39;;;;;;;9.65;5.40;;;17.50;61.30;;;;;;5071985;28;20132;-77
2022/05/10 04:11:10;;;;;;;9.95;5.93;;;17.40;61.50;;;;;;5073394;28;20705;-77
2022/05/10 04:13:37;;;;;;;8.93;4.97;;;17.40;61.70;;;;;;5073294;28;20463;-77
2022/05/10 04:16:02;;;;;;;6.25;4.97;;;17.40;61.30;;;;;;5078061;28;20027;-77
2022/05/10 04:18:28;;;;;;;8.70;5.30;;;17.50;61.30;;;;;;5084135;28;20024;-80
2022/05/10 04:20:54;;;;;;;7.40;4.90;;;17.50;61.60;;;;;;5093535;28;20039;-81
2022/05/10 04:23:20;;;;;;;9.25;5.63;;;17.40;61.50;;;;;;5088098;28;20448;-84
2022/05/10 04:25:46;;;;;;;8.10;5.25;;;17.30;62.10;;;;;;5072352;28;20033;-85
2022/05/10 04:28:12;;;;;;;9.85;5.40;;;17.20;61.90;;;;;;5078782;28;20035;-81
2022/05/10 04:30:37;;;;;;;7.10;5.00;;;17.10;62.50;;;;;;5091308;28;20069;-81
2022/05/10 04:33:03;;;;;;;9.75;5.55;;;17.00;62.70;;;;;;5087620;28;20051;-81
2022/05/10 04:35:29;;;;;;;7.72;5.85;;;17.00;62.50;;;;;;5072840;28;20115;-81
2022/05/10 04:37:55;;;;;;;9.40;5.95;;;17.00;62.80;;;;;;5072972;28;20024;-81
2022/05/10 04:43:05;;;;;;;7.78;5.50;;;17.00;63.20;;;;;;5081998;28;20074;-81
2022/05/10 04:45:32;;;;;;;8.77;6.20;;;17.00;62.70;;;;;;5093252;28;20355;-81
2022/05/10 04:47:58;;;;;;;9.68;5.80;;;17.00;63.20;;;;;;5091466;28;20378;-80
2022/05/10 04:50:23;;;;;;;9.98;6.30;;;16.90;63.60;;;;;;5083904;28;20101;-81
2022/05/10 04:52:49;;;;;;;7.45;5.80;;;17.00;63.40;;;;;;5078078;28;20020;-80
2022/05/10 04:55:15;;;;;;;8.98;5.88;;;17.00;62.90;;;;;;5070868;28;20101;-79
2022/05/10 04:57:41;;;;;;;8.55;5.60;;;17.00;62.90;;;;;;5071298;28;20040;-83
2022/05/10 05:00:10;;;;;;;7.70;5.38;;;17.00;63.50;;;;;;5071670;28;20810;-80
2022/05/10 05:02:36;;;;;;;10.13;6.65;;;17.00;63.10;;;;;;5072360;28;20115;-82
2022/05/10 05:05:02;;;;;;;11.38;5.75;;;17.00;62.90;;;;;;5088971;28;20020;-82
2022/05/10 05:07:28;;;;;;;10.07;6.35;;;17.10;63.40;;;;;;5080152;28;20028;-80
2022/05/10 05:09:53;;;;;;;10.68;6.63;;;17.00;63.70;;;;;;5091234;28;20043;-81
2022/05/10 05:12:19;;;;;;;11.27;6.22;;;17.10;63.40;;;;;;5088817;28;20079;-81
2022/05/10 05:14:45;;;;;;;9.68;7.13;;;17.20;62.90;;;;;;5091310;28;20024;-85
2022/05/10 05:17:11;;;;;;;10.55;6.82;;;17.10;63.50;;;;;;5091597;28;20063;-86
2022/05/10 05:19:36;;;;;;;8.60;6.70;;;17.20;63.30;;;;;;5084636;28;20806;-81
2022/05/10 05:22:02;;;;;;;11.23;7.10;;;17.20;63.30;;;;;;5087057;28;20103;-86
2022/05/10 05:24:28;;;;;;;8.75;6.38;;;17.20;62.60;;;;;;5080423;28;20020;-86
2022/05/10 05:26:54;;;;;;;14.15;7.50;;;17.30;62.70;;;;;;5072613;28;20103;-85
2022/05/10 05:29:19;;;;;;;13.13;6.85;;;17.20;63.60;;;;;;5087879;28;20115;-84
2022/05/10 05:31:47;;;;;;;10.73;5.95;;;17.30;63.20;;;;;;5090851;28;20035;-86
2022/05/10 05:34:12;;;;;;;9.40;7.07;;;17.30;62.80;;;;;;5081116;28;20103;-87
2022/05/10 05:36:38;;;;;;;12.00;7.50;;;17.30;63.10;;;;;;5076020;28;20070;-87
2022/05/10 05:39:04;;;;;;;12.27;7.00;;;17.30;63.20;;;;;;5090657;28;20024;-87
2022/05/10 05:41:29;;;;;;;10.40;6.50;;;17.30;62.90;;;;;;5096625;28;20107;-87
2022/05/10 05:43:55;;;;;;;11.60;7.28;;;17.30;63.30;;;;;;5095700;28;20054;-86
2022/05/10 05:46:21;;;;;;;9.93;5.50;;;17.30;64.00;;;;;;5095138;28;20055;-85
2022/05/10 05:48:47;;;;;;;11.73;6.75;;;17.30;63.20;;;;;;5092377;28;20107;-85
2022/05/10 05:51:12;;;;;;;10.30;6.68;;;17.40;63.80;;;;;;5078298;28;20060;-85
2022/05/10 05:53:38;;;;;;;10.35;6.75;;;17.40;63.90;;;;;;5096423;28;20123;-85
2022/05/10 05:56:08;;;;;;;11.13;6.80;;;17.30;63.90;;;;;;5095366;28;20020;-85
2022/05/10 05:58:36;;;;;;;9.15;6.05;;;17.40;63.30;;;;;;5075968;28;20036;-85
2022/05/10 06:01:02;;;;;;;10.93;7.03;;;17.30;63.80;;;;;;5079178;28;20031;-84
2022/05/10 06:03:28;;;;;;;12.85;7.05;;;17.40;63.70;;;;;;5086826;28;20108;-84
2022/05/10 06:05:54;;;;;;;15.13;6.78;;;17.40;64.00;;;;;;5102855;28;20021;-84
2022/05/10 06:08:19;;;;;;;9.38;6.70;;;17.40;64.10;;;;;;5075799;28;20032;-85
2022/05/10 06:10:50;;;;;;;12.32;7.47;;;17.50;64.50;;;;;;5078607;28;20020;-84
2022/05/10 06:13:19;;;;;;;16.42;7.97;;;17.50;64.70;;;;;;5089679;28;20024;-84
2022/05/10 06:15:44;;;;;;;8.98;7.20;;;17.60;64.50;;;;;;5075732;28;20031;-84
2022/05/10 06:18:10;;;;;;;11.68;7.40;;;17.60;63.80;;;;;;5075423;28;20025;-85
2022/05/10 06:20:36;;;;;;;11.77;7.32;;;17.60;63.90;;;;;;5073977;28;20148;-85
2022/05/10 06:23:03;;;;;;;11.77;7.45;;;17.50;65.30;;;;;;5076140;28;20059;-84
2022/05/10 06:25:29;;;;;;;10.05;7.10;;;17.50;65.20;;;;;;5095651;28;20097;-84
2022/05/10 06:27:55;;;;;;;16.10;7.30;;;17.40;65.40;;;;;;5095625;28;20031;-84
2022/05/10 06:30:22;;;;;;;15.82;8.10;;;17.50;64.90;;;;;;5094579;28;20020;-85
2022/05/10 06:32:49;;;;;;;10.35;7.97;;;17.50;64.90;;;;;;5085277;28;20024;-85
2022/05/10 06:35:16;;;;;;;9.93;7.22;;;17.60;65.10;;;;;;5078093;28;20435;-83
2022/05/10 06:40:26;;;;;;;12.07;7.60;;;17.60;65.70;;;;;;5081178;28;20059;-84
2022/05/10 06:42:52;;;;;;;11.95;8.18;;;17.70;65.80;;;;;;5084234;28;20028;-84
2022/05/10 06:45:19;;;;;;;15.23;7.45;;;17.80;65.30;;;;;;5084485;28;20108;-83
2022/05/10 06:47:48;;;;;;;13.68;8.52;;;17.80;64.80;;;;;;5084072;28;20071;-84
2022/05/10 06:50:17;;;;;;;10.97;8.03;;;17.90;64.50;;;;;;5081282;28;20025;-83
2022/05/10 06:52:43;;;;;;;11.73;7.20;;;17.90;64.60;;;;;;5083163;28;20276;-84
2022/05/10 06:55:10;;;;;;;9.88;6.80;;;18.00;64.00;;;;;;5082999;28;20032;-84
2022/05/10 06:57:36;;;;;;;12.75;7.53;;;18.00;64.20;;;;;;5081253;28;20012;-83
2022/05/10 07:00:05;;;;;;;11.25;7.43;;;18.10;63.90;;;;;;5084075;28;20024;-84
2022/05/10 07:02:31;;;;;;;11.30;7.45;;;18.10;64.30;;;;;;5084630;28;20024;-83
2022/05/10 07:04:56;;;;;;;12.55;6.90;;;18.20;63.90;;;;;;5083696;28;20473;-81
2022/05/10 07:07:23;;;;;;;10.95;6.75;;;18.30;63.90;;;;;;5081293;28;20477;-84
2022/05/10 07:09:48;;;;;;;9.85;5.22;;;18.50;62.30;;;;;;5081642;28;20052;-83
2022/05/10 07:12:14;;;;;;;6.97;3.90;;;19.10;59.00;;;;;;5082956;28;20047;-83
2022/05/10 07:14:40;;;;;;;6.68;4.65;;;21.20;53.30;;;;;;5083427;28;20028;-83
2022/05/10 07:17:06;;;;;;;6.53;3.88;;;22.80;48.10;;;;;;5083375;28;20027;-82
2022/05/10 07:19:31;;;;;;;5.95;3.75;;;25.50;42.70;;;;;;5083054;28;21356;-82
2022/05/10 07:21:57;;;;;;;6.57;3.42;;;28.40;37.50;;;;;;5083933;28;20031;-82
2022/05/10 07:24:23;;;;;;;8.18;3.60;;;30.40;33.80;;;;;;5084715;28;20052;-82
2022/05/10 07:26:49;;;;;;;87.45;46.15;;;32.00;30.50;;;;;;5089503;28;20024;-82
2022/05/10 07:29:16;;;;;;;5.40;3.83;;;33.10;28.40;;;;;;5088751;28;20063;-83
2022/05/10 07:31:42;;;;;;;5.15;3.38;;;34.30;27.20;;;;;;5084526;28;20032;-83
2022/05/10 07:34:09;;;;;;;5.75;4.22;;;35.00;26.80;;;;;;5083477;28;20024;-83
2022/05/10 07:36:34;;;;;;;6.55;4.00;;;35.80;25.40;;;;;;5082366;28;20092;-83
2022/05/10 07:39:04;;;;;;;10.50;4.18;;;36.30;24.70;;;;;;5082158;28;20058;-83
2022/05/10 07:41:30;;;;;;;7.05;4.00;;;36.80;23.90;;;;;;5082660;28;20025;-83
2022/05/10 07:43:56;;;;;;;5.65;3.60;;;36.80;23.70;;;;;;5080130;28;20412;-83
2022/05/10 07:46:22;;;;;;;4.38;3.28;;;37.30;23.40;;;;;;5082266;28;20100;-82
2022/05/10 07:48:48;;;;;;;3.97;2.88;;;37.70;21.20;;;;;;5073245;28;20029;-82
2022/05/10 07:51:14;;;;;;;5.55;3.00;;;38.30;21.40;;;;;;5074833;28;20028;-83
2022/05/10 07:53:41;;;;;;;5.65;3.08;;;38.40;20.90;;;;;;5075330;28;20592;-83
2022/05/10 07:56:08;;;;;;;7.70;3.50;;;38.80;20.70;;;;;;5088240;28;20020;-83
2022/05/10 07:58:35;;;;;;;4.28;2.53;;;39.00;20.40;;;;;;5075233;28;20279;-83
2022/05/10 08:01:01;;;;;;;3.15;2.70;;;39.30;20.60;;;;;;5072635;28;20032;-82
2022/05/10 08:03:27;;;;;;;4.05;2.40;;;39.80;19.80;;;;;;5077914;28;20452;-83
2022/05/10 08:05:59;;;;;;;3.63;2.20;;;40.10;19.10;;;;;;5073481;28;20140;-83
2022/05/10 08:08:27;;;;;;;3.53;2.75;;;40.20;19.40;;;;;;5073709;28;20016;-84
2022/05/10 08:10:54;;;;;;;3.58;2.28;;;40.50;18.50;;;;;;5077638;28;20024;-83
2022/05/10 08:13:22;;;;;;;7.75;3.08;;;40.80;18.70;;;;;;5092057;28;20024;-83
2022/05/10 08:15:50;;;;;;;3.78;2.40;;;40.90;18.50;;;;;;5073533;28;20030;-83
2022/05/10 08:18:18;;;;;;;5.68;2.13;;;41.20;17.90;;;;;;5071741;28;20044;-83
2022/05/10 08:20:44;;;;;;;4.70;2.70;;;41.10;17.80;;;;;;5073168;28;20041;-83
2022/05/10 08:23:23;;;;;;;4.15;2.70;;;41.50;17.70;;;;;;5073594;28;20052;-83
2022/05/10 08:25:50;;;;;;;5.55;2.40;;;41.40;17.80;;;;;;5073393;28;20074;-83
2022/05/10 08:28:16;;;;;;;5.22;2.63;;;41.60;17.70;;;;;;5073195;28;20566;-83
2022/05/10 08:30:44;;;;;;;3.75;2.72;;;41.50;17.80;;;;;;5073353;28;20029;-83
2022/05/10 08:33:10;;;;;;;3.70;2.95;;;41.60;17.40;;;;;;5073465;28;20070;-83
2022/05/10 08:35:39;;;;;;;3.58;2.50;;;41.30;18.40;;;;;;5074259;28;20028;-83
2022/05/10 08:38:05;;;;;;;3.35;2.03;;;41.00;18.40;;;;;;5073067;28;20100;-83
2022/05/10 08:40:35;;;;;;;4.93;2.13;;;41.20;18.30;;;;;;5073131;28;20067;-83
2022/05/10 08:43:04;;;;;;;7.28;2.50;;;41.10;18.00;;;;;;5072907;28;20024;-83
2022/05/10 08:45:37;;;;;;;3.30;2.30;;;40.80;18.70;;;;;;5075654;28;20044;-83
2022/05/10 08:48:02;;;;;;;4.68;2.58;;;40.90;17.80;;;;;;5093313;28;20474;-83
2022/05/10 08:50:28;;;;;;;5.72;2.65;;;40.50;18.40;;;;;;5092176;28;20051;-83
2022/05/10 08:52:54;;;;;;;3.90;2.60;;;40.70;18.20;;;;;;5093071;28;20035;-83
2022/05/10 08:55:25;;;;;;;3.72;2.30;;;40.60;18.10;;;;;;5083359;28;20020;-84
2022/05/10 08:58:05;;;;;;;3.42;2.55;;;40.80;18.60;;;;;;5081966;28;20028;-84
2022/05/10 09:00:35;;;;;;;3.95;2.80;;;40.80;18.60;;;;;;5083660;28;20805;-84
2022/05/10 09:03:21;;;;;;;3.65;2.50;;;40.60;18.10;;;;;;5084642;28;20032;-84
2022/05/10 09:05:48;;;;;;;3.28;2.97;;;40.30;19.30;;;;;;5083779;28;20076;-84
2022/05/10 09:08:39;;;;;;;4.53;2.42;;;40.60;19.10;;;;;;5081946;28;20028;-83
2022/05/10 09:11:10;;;;;;;4.53;2.88;;;40.50;19.40;;;;;;5082711;28;20027;-83
2022/05/10 09:13:37;;;;;;;4.10;2.35;;;40.80;19.10;;;;;;5081665;28;20063;-83
2022/05/10 09:16:12;;;;;;;6.50;2.50;;;40.40;19.30;;;;;;5085509;28;20020;-83
2022/05/10 09:18:56;;;;;;;4.72;2.80;;;40.70;18.70;;;;;;5085324;28;20044;-83
2022/05/10 09:21:38;;;;;;;4.60;2.55;;;39.90;19.20;;;;;;5087001;28;20030;-84
2022/05/10 09:24:38;;;;;;;6.05;2.72;;;40.10;19.60;;;;;;5082846;28;20055;-83
2022/05/10 09:27:06;;;;;;;3.53;2.25;;;39.90;20.00;;;;;;5086982;28;20029;-84
2022/05/10 09:29:48;;;;;;;5.72;2.55;;;40.30;19.30;;;;;;5084695;28;20017;-86
2022/05/10 09:35:21;;;;;;;4.95;2.60;;;39.60;19.60;;;;;;5087432;28;20038;-84
2022/05/10 09:38:06;;;;;;;3.88;2.30;;;40.10;19.80;;;;;;5089918;28;20020;-84
2022/05/10 09:40:41;;;;;;;4.05;2.95;;;40.40;19.20;;;;;;5085289;28;20091;-84
2022/05/10 09:43:32;;;;;;;2.47;1.75;;;40.30;19.90;;;;;;5071056;28;20076;-84
2022/05/10 09:46:22;;;;;;;3.80;2.15;;;40.40;19.70;;;;;;5093828;28;20096;-84
2022/05/10 09:48:48;;;;;;;5.18;2.00;;;40.70;19.10;;;;;;5074672;28;20035;-84
2022/05/10 09:51:35;;;;;;;5.80;2.00;;;40.90;19.80;;;;;;5085619;28;20024;-84
2022/05/10 09:54:02;;;;;;;;;;;40.20;19.30;;;;;;5084046;28;20089;-84
2022/05/10 09:56:35;;;;;;;2.93;2.00;;;40.30;19.00;;;;;;5083688;28;19919;-85
2022/05/10 09:59:18;;;;;;;4.13;1.73;;;40.50;19.60;;;;;;5092679;28;20023;-84
2022/05/10 10:01:47;;;;;;;28.45;14.10;;;40.60;19.80;;;;;;5078781;28;20116;-84
2022/05/10 10:04:26;;;;;;;4.63;1.92;;;40.60;18.80;;;;;;5107432;28;20023;-84
2022/05/10 10:07:20;;;;;;;5.15;1.90;;;40.10;18.90;;;;;;5116611;28;20546;-84
2022/05/10 10:09:51;;;;;;;4.32;1.85;;;40.10;19.60;;;;;;5075250;27;20028;-83
2022/05/10 10:12:36;;;;;;;5.28;2.17;;;40.00;19.60;;;;;;5080333;28;20032;-84
2022/05/10 10:15:40;;;;;;;3.75;1.70;;;39.90;20.40;;;;;;5074550;28;20426;-84
2022/05/10 10:18:12;;;;;;;2.45;1.65;;;39.10;20.00;;;;;;5073898;28;20031;-84
2022/05/10 10:20:51;;;;;;;48.42;19.73;;;38.40;20.90;;;;;;5075149;28;20032;-85
2022/05/10 10:23:38;;;;;;;240.70;122.38;;;37.80;21.70;;;;;;5075658;28;20025;-83
2022/05/10 10:26:17;;;;;;;6.55;1.75;;;37.00;21.70;;;;;;5074653;28;20033;-83
2022/05/10 10:28:52;;;;;;;85.97;47.30;;;36.50;22.70;;;;;;5075718;28;20027;-86
2022/05/10 10:31:59;;;;;;;118.28;54.35;;;35.50;23.00;;;;;;5081497;28;20432;-84
2022/05/10 10:34:37;;;;;;;3.05;1.13;;;34.10;24.90;;;;;;5094082;28;20274;-83
2022/05/10 10:37:19;;;;;;;3.25;1.65;;;33.00;26.00;;;;;;5094098;28;20065;-85
2022/05/10 10:40:08;;;;;;;2.80;1.30;;;32.00;28.10;;;;;;5075555;28;20550;-83
2022/05/10 10:42:40;;;;;;;2.75;1.58;;;31.50;27.70;;;;;;5075184;28;20025;-85
2022/05/10 10:45:12;;;;;;;2.40;1.52;;;30.80;28.70;;;;;;5073566;28;20021;-83
2022/05/10 10:48:12;;;;;;;95.55;41.60;;;30.70;29.70;;;;;;5074928;28;20025;-84
2022/05/10 10:50:38;;;;;;;2.72;1.80;;;30.40;29.00;;;;;;5051137;28;20064;-84
2022/05/10 10:53:07;;;;;;;4.07;2.10;;;30.00;29.20;;;;;;5091869;28;20035;-84
2022/05/10 10:56:08;;;;;;;2.60;1.52;;;29.90;30.20;;;;;;5075135;28;20092;-84
2022/05/10 10:58:48;;;;;;;4.80;1.60;;;29.80;30.30;;;;;;5073368;28;20041;-84
2022/05/10 11:01:19;;;;;;;;;;;29.70;30.60;;;;;;5075296;28;20032;-84
2022/05/10 11:04:12;;;;;;;2.30;1.63;;;29.70;30.00;;;;;;5090172;28;20361;-84
2022/05/10 11:06:49;;;;;;;3.13;1.52;;;29.70;31.30;;;;;;5090528;28;20625;-84
2022/05/10 11:09:52;;;;;;;10.27;1.90;;;29.80;31.40;;;;;;5074698;28;20021;-85
2022/05/10 11:12:41;;;;;;;7.15;2.08;;;29.90;30.60;;;;;;5072917;28;20036;-84
2022/05/10 11:15:31;;;;;;;5.18;1.95;;;29.40;30.40;;;;;;5074791;28;20054;-83
2022/05/10 11:18:12;;;;;;;3.13;1.52;;;29.30;31.40;;;;;;5073215;28;20131;-83
2022/05/10 11:21:00;;;;;;;2.30;1.52;;;29.30;31.60;;;;;;5075831;28;20041;-84
2022/05/10 11:23:45;;;;;;;5.45;2.05;;;29.30;31.80;;;;;;5081658;28;20025;-84
2022/05/10 11:26:25;;;;;;;4.85;1.95;;;29.30;32.20;;;;;;5073389;28;20051;-84
2022/05/10 11:29:17;;;;;;;3.05;1.80;;;29.50;30.70;;;;;;5078039;28;20039;-84
2022/05/10 11:32:06;;;;;;;3.25;1.73;;;29.60;32.10;;;;;;5084609;28;20108;-83
2022/05/10 11:34:49;;;;;;;2.75;1.63;;;29.30;31.40;;;;;;5079694;28;20025;-83
2022/05/10 11:37:31;;;;;;;3.60;1.50;;;29.30;32.40;;;;;;5081856;28;20383;-84
2022/05/10 11:40:25;;;;;;;3.15;1.77;;;29.20;31.70;;;;;;5083585;28;20112;-83
2022/05/10 11:43:00;;;;;;;3.92;1.60;;;29.10;32.40;;;;;;5081404;28;20048;-84
2022/05/10 11:45:34;;;;;;;4.72;2.13;;;29.00;31.70;;;;;;5082882;28;20059;-84
2022/05/10 11:48:18;;;;;;;5.38;2.28;;;29.00;32.20;;;;;;5083294;28;20044;-85
2022/05/10 11:54:29;;;;;;;3.97;1.85;;;29.00;32.70;;;;;;5083254;28;20090;-85
2022/05/10 11:56:58;;;;;;;2.92;1.77;;;29.10;32.20;;;;;;5078404;28;20056;-84
2022/05/10 11:59:27;;;;;;;4.28;2.28;;;29.20;32.10;;;;;;5080035;28;20032;-84
2022/05/10 12:01:57;;;;;;;3.53;2.13;;;29.30;32.50;;;;;;5083657;28;20387;-85
2022/05/10 12:04:32;;;;;;;3.40;2.15;;;29.30;32.80;;;;;;5083388;28;20033;-84
2022/05/10 12:07:22;;;;;;;4.55;1.85;;;29.10;33.00;;;;;;5082817;28;20025;-86
2022/05/10 12:10:07;;;;;;;4.30;1.80;;;29.00;31.70;;;;;;5083571;28;20028;-85
2022/05/10 12:12:32;;;;;;;2.28;1.63;;;28.60;31.40;;;;;;5082865;28;20068;-84
2022/05/10 12:24:11;;;;;;;4.18;1.75;;;29.00;31.70;;;;;;5083739;28;20058;-84
2022/05/10 12:26:52;;;;;;;5.65;1.80;;;29.00;31.90;;;;;;5082419;28;20085;-84
2022/05/10 12:29:40;;;;;;;4.60;1.75;;;29.00;31.80;;;;;;5083866;28;20020;-84
2022/05/10 12:32:18;;;;;;;2.40;1.80;;;28.90;33.30;;;;;;5083564;28;20020;-84
2022/05/10 12:34:49;;;;;;;5.15;1.90;;;28.70;32.60;;;;;;5083568;28;20028;-84
2022/05/10 12:37:30;;;;;;;2.50;1.90;;;28.80;34.60;;;;;;5083051;28;20033;-85
2022/05/10 12:40:04;;;;;;;2.92;1.50;;;28.60;32.80;;;;;;5084181;28;20035;-84
2022/05/10 12:43:14;;;;;;;4.72;1.83;;;28.60;32.90;;;;;;5082697;28;20020;-85
2022/05/10 12:45:54;;;;;;;1.95;1.60;;;28.60;34.20;;;;;;5083500;28;20021;-85
2022/05/10 12:48:47;;;;;;;15.93;2.78;;;28.60;33.90;;;;;;5082048;28;20050;-85
2022/05/10 12:51:38;;;;;;;4.95;1.30;;;28.70;33.90;;;;;;5089837;28;20020;-84
2022/05/10 12:54:19;;;;;;;5.13;1.65;;;28.60;33.00;;;;;;5086689;28;20020;-85
2022/05/10 12:57:06;;;;;;;9.15;2.20;;;28.60;32.60;;;;;;5087348;28;20020;-86
2022/05/10 12:59:54;;;;;;;3.35;1.65;;;28.60;32.50;;;;;;5087885;28;20082;-84
2022/05/10 13:02:20;;;;;;;3.15;1.40;;;28.30;32.30;;;;;;5088251;28;20088;-85
2022/05/10 13:04:55;;;;;;;3.35;1.83;;;28.40;32.60;;;;;;5089164;28;20030;-87
2022/05/10 13:07:47;;;;;;;3.58;1.70;;;28.50;33.60;;;;;;5086144;28;20506;-85
2022/05/10 13:10:21;;;;;;;2.72;1.75;;;28.40;32.90;;;;;;5086968;28;20032;-85
2022/05/10 13:12:57;;;;;;;7.57;1.92;;;28.10;34.90;;;;;;5085975;28;20113;-83
2022/05/10 13:15:24;;;;;;;2.97;1.25;;;28.10;34.20;;;;;;5085516;28;20047;-85
2022/05/10 13:17:53;;;;;;;3.33;1.55;;;28.30;33.50;;;;;;5086977;28;20563;-84
2022/05/10 13:20:22;;;;;;;2.77;1.43;;;28.30;33.30;;;;;;5076444;28;20044;-85
2022/05/10 13:22:58;;;;;;;4.18;1.65;;;28.40;33.30;;;;;;5076832;28;20028;-84
2022/05/10 13:25:31;;;;;;;10.63;5.07;;;28.60;33.10;;;;;;5074929;28;20024;-84
2022/05/10 13:28:16;;;;;;;4.15;1.80;;;28.50;33.70;;;;;;5081604;28;20056;-85
2022/05/10 13:30:45;;;;;;;2.28;1.30;;;28.60;33.30;;;;;;5096950;28;20028;-85
2022/05/10 13:33:21;;;;;;;2.50;1.35;;;28.50;33.70;;;;;;5089595;28;20021;-85
2022/05/10 13:35:49;;;;;;;5.30;1.42;;;28.60;33.00;;;;;;5075118;28;20372;-84
2022/05/10 13:38:26;;;;;;;4.00;2.05;;;28.50;32.80;;;;;;5082712;28;20433;-84
2022/05/10 13:40:57;;;;;;;2.75;1.58;;;28.40;32.00;;;;;;5095549;28;20024;-85
2022/05/10 13:43:33;;;;;;;4.47;1.80;;;28.40;31.80;;;;;;5096549;28;20729;-84